Norhavet — LM5696 — position and weather

sailwx.info

Track history (hours):
 
Tides and Currents Weather Stations Pressure Air Temp Water Temp Dewpoint Dewpoint Depression Visibility Wind Speed Wind Dir Waves Ship Positions

Norhavet

Last reported at 2017-Nov-16 09:02 UTC. Time now 2017-Nov-21 23:15 UTC.
Position N 68°55' E 015°04'.

Length 12 m.

Type: Fishing. MMSI: 257301620.

Date/timePositionNaut miles runAvg speedWind from/ knotsBaromVisibWave heightAir tempDewpointWater temp
2017-Nov-16 09:02N 68°55' E 015°04'0 0.0
2017-Nov-16 08:56N 68°55' E 015°04'0 0.0
2017-Nov-16 08:20N 68°55' E 015°04'0 0.0
2017-Nov-16 07:56N 68°55' E 015°04'0 0.0
2017-Nov-16 07:26N 68°55' E 015°04'0 0.0
2017-Nov-16 06:53N 68°55' E 015°04'0 0.0
2017-Nov-16 06:26N 68°55' E 015°04'0 0.0
2017-Nov-16 05:59N 68°55' E 015°04'0 0.0
2017-Nov-16 05:20N 68°55' E 015°04'0 0.0
2017-Nov-16 04:56N 68°55' E 015°04'0 0.0
2017-Nov-16 04:26N 68°55' E 015°04'0 0.0
2017-Nov-16 03:56N 68°55' E 015°04'0 0.0
2017-Nov-16 03:26N 68°55' E 015°04'0 0.0
2017-Nov-16 02:56N 68°55' E 015°04'0 0.0
2017-Nov-16 02:14N 68°55' E 015°04'0 0.0
2017-Nov-16 01:56N 68°55' E 015°04'0 0.0
2017-Nov-16 01:20N 68°55' E 015°04'0 0.0
2017-Nov-16 00:44N 68°55' E 015°04'0 0.0
2017-Nov-16 00:23N 68°55' E 015°04'0 0.0
2017-Nov-15 23:59N 68°55' E 015°04'0 0.0
2017-Nov-15 23:20N 68°55' E 015°04'0 0.0
2017-Nov-15 22:59N 68°55' E 015°04'0 0.0
2017-Nov-15 22:29N 68°55' E 015°04'0 0.0
2017-Nov-15 21:44N 68°55' E 015°04'0 0.0
2017-Nov-15 21:20N 68°55' E 015°04'0 0.0
2017-Nov-15 20:56N 68°55' E 015°04'0 0.0
2017-Nov-15 20:26N 68°55' E 015°04'0 0.0
2017-Nov-15 19:38N 68°55' E 015°04'0 0.0
2017-Nov-15 19:02N 68°55' E 015°04'0 0.0
2017-Nov-15 18:56N 68°55' E 015°04'0 0.0
2017-Nov-15 18:26N 68°55' E 015°04'0 0.0
2017-Nov-15 17:56N 68°55' E 015°04'0 0.0
2017-Nov-15 17:26N 68°55' E 015°04'0 0.0
2017-Nov-15 16:50N 68°55' E 015°04'0 0.0
2017-Nov-15 16:26N 68°55' E 015°04'0 0.0
2017-Nov-15 15:50N 68°55' E 015°04'0 0.0
2017-Nov-15 15:26N 68°55' E 015°04'0 0.3
2017-Nov-15 15:00N 68°55' E 015°04'1 2.8
2017-Nov-15 14:30N 68°56' E 015°02'4 7.6
2017-Nov-15 14:00N 68°57' E 014°52'4 7.8
2017-Nov-15 13:30N 68°58' E 014°42'4 8.0
2017-Nov-15 13:00N 68°60' E 014°31'4 7.4
2017-Nov-15 12:30N 69°01' E 014°21'2 3.8
2017-Nov-15 12:00N 69°01' E 014°16'0 0.5
2017-Nov-15 11:31N 69°02' E 014°16'0 0.6
2017-Nov-15 11:00N 69°01' E 014°16'0 0.4
2017-Nov-15 10:30N 69°01' E 014°16'0 0.3
2017-Nov-15 10:01N 69°01' E 014°16'0 0.3
2017-Nov-15 09:30N 69°01' E 014°16'2 3.7
2017-Nov-15 09:00N 69°00' E 014°21'0 0.1
2017-Nov-15 08:30N 69°00' E 014°20'0 0.6
2017-Nov-15 08:00N 68°60' E 014°20'0 0.4
2017-Nov-15 07:30N 68°60' E 014°21'0 0.2
2017-Nov-15 07:00N 68°60' E 014°21'1 2.2
2017-Nov-15 06:29N 68°60' E 014°24'4 7.0
2017-Nov-15 05:59N 68°59' E 014°33'3 6.8
2017-Nov-15 05:29N 68°58' E 014°43'4 7.2
2017-Nov-15 04:59N 68°57' E 014°52'4 7.5
2017-Nov-15 04:30N 68°56' E 015°01'2 2.8
2017-Nov-15 03:57N 68°55' E 015°04'0 0.0
2017-Nov-15 03:27N 68°55' E 015°04'0 0.0
2017-Nov-15 02:57N 68°55' E 015°04'0 0.0
2017-Nov-15 02:27N 68°55' E 015°04'0 0.0
2017-Nov-15 01:39N 68°55' E 015°04'0 0.0
2017-Nov-15 01:27N 68°55' E 015°04'0 0.0
2017-Nov-15 00:57N 68°55' E 015°04'0 0.0
2017-Nov-15 00:30N 68°55' E 015°04'0 0.0
2017-Nov-14 23:51N 68°55' E 015°04'0 0.0
2017-Nov-14 23:30N 68°55' E 015°04'0 0.0
2017-Nov-14 23:00N 68°55' E 015°04'0 0.0
2017-Nov-14 22:24N 68°55' E 015°04'0 0.0
2017-Nov-14 22:00N 68°55' E 015°04'0 0.0
2017-Nov-14 21:30N 68°55' E 015°04'0 0.0
2017-Nov-14 21:00N 68°55' E 015°04'0 0.0
2017-Nov-14 20:30N 68°55' E 015°04'0 0.0
2017-Nov-14 19:48N 68°55' E 015°04'0 0.0
2017-Nov-14 19:27N 68°55' E 015°04'0 0.0
2017-Nov-14 19:00N 68°55' E 015°04'0 0.0
2017-Nov-14 18:27N 68°55' E 015°04'0 0.0
2017-Nov-14 17:51N 68°55' E 015°04'0 0.0
2017-Nov-14 17:30N 68°55' E 015°04'0 0.0
2017-Nov-14 16:57N 68°55' E 015°04'0 0.0
2017-Nov-14 16:27N 68°55' E 015°04'0 0.0
2017-Nov-14 15:57N 68°55' E 015°04'0 0.0
2017-Nov-14 15:27N 68°55' E 015°04'0 0.3
2017-Nov-14 14:58N 68°55' E 015°04'3 6.3
2017-Nov-14 14:27N 68°57' E 014°57'4 7.9
2017-Nov-14 14:00N 68°58' E 014°48'4 7.9
2017-Nov-14 13:30N 68°59' E 014°37'4 7.8
2017-Nov-14 13:00N 68°60' E 014°27'4 6.7
2017-Nov-14 12:29N 69°01' E 014°18'0 0.1
2017-Nov-14 12:00N 69°01' E 014°17'0 0.1
2017-Nov-14 11:29N 69°01' E 014°17'0 0.3
2017-Nov-14 11:00N 69°01' E 014°17'2 3.0
2017-Nov-14 10:30N 69°00' E 014°20'1 1.3
2017-Nov-14 10:00N 69°00' E 014°22'0 0.4
2017-Nov-14 09:30N 69°00' E 014°21'0 0.4
2017-Nov-14 08:59N 68°60' E 014°21'0 0.6
2017-Nov-14 08:30N 69°00' E 014°22'0 0.5
2017-Nov-14 08:00N 69°00' E 014°22'0 0.5
2017-Nov-14 07:30N 69°00' E 014°22'0 0.5
2017-Nov-14 07:00N 68°60' E 014°21'0 0.1
2017-Nov-14 06:30N 68°60' E 014°21'2 3.1
2017-Nov-14 06:00N 68°59' E 014°25'4 7.9
2017-Nov-14 05:30N 68°58' E 014°36'4 7.4
2017-Nov-14 05:00N 68°58' E 014°46'4 7.2
2017-Nov-14 04:29N 68°57' E 014°56'4 7.1
2017-Nov-14 03:57N 68°55' E 015°04'0 0.4
2017-Nov-14 03:28N 68°55' E 015°04'0 0.0
2017-Nov-14 02:58N 68°55' E 015°04'0 0.0
2017-Nov-14 02:25N 68°55' E 015°04'0 0.0
2017-Nov-14 01:55N 68°55' E 015°04'0 0.0
2017-Nov-14 01:25N 68°55' E 015°04'0 0.0
2017-Nov-14 00:55N 68°55' E 015°04'0 0.0
2017-Nov-14 00:07N 68°55' E 015°04'0 0.0
2017-Nov-13 23:55N 68°55' E 015°04'0 0.0
2017-Nov-13 23:25N 68°55' E 015°04'0 0.0
2017-Nov-13 22:49N 68°55' E 015°04'0 0.0
2017-Nov-13 22:28N 68°55' E 015°04'0 0.0
2017-Nov-13 21:58N 68°55' E 015°04'0 0.0
2017-Nov-13 00:25N 68°55' E 015°04'0 0.0
2017-Nov-12 23:25N 68°55' E 015°04'0 0.0
2017-Nov-12 22:37N 68°55' E 015°04'0 0.0
2017-Nov-12 22:19N 68°55' E 015°04'0 0.0
2017-Nov-12 21:43N 68°55' E 015°04'0 0.0
2017-Nov-12 21:25N 68°55' E 015°04'0 0.0
2017-Nov-12 20:49N 68°55' E 015°04'0 0.0
2017-Nov-12 20:22N 68°55' E 015°04'0 0.0
2017-Nov-12 18:43N 68°55' E 015°04'0 0.0
2017-Nov-12 18:25N 68°55' E 015°04'0 0.0
2017-Nov-12 17:43N 68°55' E 015°04'0 0.0
2017-Nov-12 17:25N 68°55' E 015°04'0 0.0
2017-Nov-12 16:55N 68°55' E 015°04'0 0.0
2017-Nov-12 16:25N 68°55' E 015°04'0 0.0
2017-Nov-12 15:43N 68°55' E 015°04'0 0.0
2017-Nov-12 15:01N 68°55' E 015°04'0 0.0
2017-Nov-12 14:49N 68°55' E 015°04'0 0.0
2017-Nov-12 13:31N 68°55' E 015°04'0 0.0
2017-Nov-12 12:55N 68°55' E 015°04'0 0.0
2017-Nov-12 12:19N 68°55' E 015°04'0 0.0
2017-Nov-12 11:13N 68°55' E 015°04'0 0.0
2017-Nov-12 10:55N 68°55' E 015°04'0 0.0
2017-Nov-12 08:49N 68°55' E 015°04'0 0.0
2017-Nov-12 08:25N 68°55' E 015°04'0 0.0
2017-Nov-12 07:37N 68°55' E 015°04'0 0.0
2017-Nov-12 07:25N 68°55' E 015°04'0 0.0
2017-Nov-12 06:55N 68°55' E 015°04'0 0.0
2017-Nov-12 06:25N 68°55' E 015°04'0 0.0
2017-Nov-12 05:55N 68°55' E 015°04'0 0.0
2017-Nov-12 05:25N 68°55' E 015°04'0 0.0
2017-Nov-12 04:49N 68°55' E 015°04'0 0.0
2017-Nov-12 04:25N 68°55' E 015°04'0 0.0
2017-Nov-12 03:55N 68°55' E 015°04'0 0.0
2017-Nov-12 03:25N 68°55' E 015°04'0 0.0
2017-Nov-12 02:01N 68°55' E 015°04'0 0.0
2017-Nov-12 01:49N 68°55' E 015°04'0 0.0
2017-Nov-12 01:01N 68°55' E 015°04'0 0.0
2017-Nov-12 00:37N 68°55' E 015°04'0 0.0
2017-Nov-11 23:37N 68°55' E 015°04'0 0.0
2017-Nov-11 23:25N 68°55' E 015°04'0 0.0
2017-Nov-11 22:55N 68°55' E 015°04'0 0.0
2017-Nov-11 22:19N 68°55' E 015°04'0 0.0
2017-Nov-11 21:55N 68°55' E 015°04'0 0.0
2017-Nov-11 21:13N 68°55' E 015°04'0 0.0
2017-Nov-11 20:55N 68°55' E 015°04'0 0.0
2017-Nov-11 20:19N 68°55' E 015°04'0 0.0
2017-Nov-11 19:49N 68°55' E 015°04'0 0.0
2017-Nov-11 19:25N 68°55' E 015°04'0 0.0
2017-Nov-11 18:52N 68°55' E 015°04'0 0.0
2017-Nov-11 18:25N 68°55' E 015°04'0 0.0
2017-Nov-11 17:43N 68°55' E 015°04'0 0.0
2017-Nov-11 17:19N 68°55' E 015°04'0 0.0
2017-Nov-11 16:49N 68°55' E 015°04'0 0.0
2017-Nov-11 16:19N 68°55' E 015°04'0 0.0
2017-Nov-11 15:55N 68°55' E 015°04'0 0.0
2017-Nov-11 14:25N 68°55' E 015°04'0 0.0
2017-Nov-11 13:55N 68°55' E 015°04'0 0.0
2017-Nov-11 13:19N 68°55' E 015°04'0 0.0
2017-Nov-11 12:55N 68°55' E 015°04'0 0.0
2017-Nov-11 12:25N 68°55' E 015°04'0 0.0
2017-Nov-11 11:55N 68°55' E 015°04'0 0.0
2017-Nov-11 11:19N 68°55' E 015°04'0 0.0
2017-Nov-11 10:13N 68°55' E 015°04'0 0.0
2017-Nov-11 09:49N 68°55' E 015°04'0 0.0
2017-Nov-11 09:25N 68°55' E 015°04'0 0.0
2017-Nov-11 08:37N 68°55' E 015°04'0 0.0
2017-Nov-11 08:13N 68°55' E 015°04'0 0.0
2017-Nov-11 07:49N 68°55' E 015°04'0 0.0
2017-Nov-11 07:19N 68°55' E 015°04'0 0.0
2017-Nov-11 06:43N 68°55' E 015°04'0 0.0
2017-Nov-11 06:19N 68°55' E 015°04'0 0.0
2017-Nov-11 05:55N 68°55' E 015°04'0 0.0
2017-Nov-11 05:25N 68°55' E 015°04'0 0.0
2017-Nov-11 04:55N 68°55' E 015°04'0 0.0
2017-Nov-11 04:19N 68°55' E 015°04'0 0.0
2017-Nov-11 03:49N 68°55' E 015°04'0 0.0
2017-Nov-11 03:25N 68°55' E 015°04'0 0.0
2017-Nov-11 02:55N 68°55' E 015°04'0 0.0
2017-Nov-11 02:07N 68°55' E 015°04'0 0.0
2017-Nov-11 01:55N 68°55' E 015°04'0 0.0
2017-Nov-11 01:13N 68°55' E 015°04'0 0.0
2017-Nov-11 00:55N 68°55' E 015°04'0 0.0
2017-Nov-11 00:13N 68°55' E 015°04'0 0.0
2017-Nov-10 23:43N 68°55' E 015°04'0 0.0
2017-Nov-10 23:19N 68°55' E 015°04'0 0.0
2017-Nov-10 22:55N 68°55' E 015°04'0 0.0
2017-Nov-10 21:13N 68°55' E 015°04'0 0.0
2017-Nov-10 20:49N 68°55' E 015°04'0 0.0
2017-Nov-10 20:19N 68°55' E 015°04'0 0.0
2017-Nov-10 19:55N 68°55' E 015°04'0 0.0
2017-Nov-10 19:25N 68°55' E 015°04'0 0.0
2017-Nov-10 18:55N 68°55' E 015°04'0 0.0
2017-Nov-10 18:25N 68°55' E 015°04'0 0.0
2017-Nov-10 17:37N 68°55' E 015°04'0 0.0
2017-Nov-10 17:10N 68°55' E 015°04'0 0.0
2017-Nov-10 16:55N 68°55' E 015°04'0 0.0
2017-Nov-10 16:25N 68°55' E 015°04'0 0.0
2017-Nov-10 15:52N 68°55' E 015°04'0 0.0
2017-Nov-10 15:28N 68°55' E 015°04'0 0.0
2017-Nov-10 14:52N 68°55' E 015°04'0 0.0
2017-Nov-10 14:13N 68°55' E 015°04'0 0.0
2017-Nov-10 13:13N 68°55' E 015°04'0 0.0
2017-Nov-10 12:55N 68°55' E 015°04'0 0.0
2017-Nov-10 12:25N 68°55' E 015°04'0 0.0
2017-Nov-10 11:49N 68°55' E 015°04'0 0.0
2017-Nov-10 11:07N 68°55' E 015°04'0 0.0
2017-Nov-10 10:13N 68°55' E 015°04'0 0.0
2017-Nov-10 09:49N 68°55' E 015°04'0 0.0
2017-Nov-10 09:25N 68°55' E 015°04'0 0.0
2017-Nov-10 08:25N 68°55' E 015°04'0 0.0
2017-Nov-10 07:55N 68°55' E 015°04'0 0.0
2017-Nov-10 07:19N 68°55' E 015°04'0 0.0
2017-Nov-10 06:55N 68°55' E 015°04'0 0.0
2017-Nov-10 06:25N 68°55' E 015°04'0 0.0
2017-Nov-10 05:43N 68°55' E 015°04'0 0.0
2017-Nov-10 05:22N 68°55' E 015°04'0 0.0
2017-Nov-10 04:55N 68°55' E 015°04'0 0.0
2017-Nov-10 04:25N 68°55' E 015°04'0 0.0
2017-Nov-10 03:58N 68°55' E 015°04'0 0.0
2017-Nov-10 03:28N 68°55' E 015°04'0 0.0
2017-Nov-10 02:49N 68°55' E 015°04'0 0.0
2017-Nov-10 02:28N 68°55' E 015°04'0 0.0
2017-Nov-10 01:37N 68°55' E 015°04'0 0.0
2017-Nov-10 01:25N 68°55' E 015°04'0 0.0
2017-Nov-10 00:58N 68°55' E 015°04'0 0.0
2017-Nov-10 00:25N 68°55' E 015°04'0 0.0
2017-Nov-09 23:49N 68°55' E 015°04'0 0.0
2017-Nov-09 23:25N 68°55' E 015°04'0 0.0
2017-Nov-09 22:49N 68°55' E 015°04'0 0.0
2017-Nov-09 21:55N 68°55' E 015°04'0 0.0
2017-Nov-09 21:01N 68°55' E 015°04'0 0.0
2017-Nov-09 20:25N 68°55' E 015°04'0 0.0
2017-Nov-09 19:49N 68°55' E 015°04'0 0.0
2017-Nov-09 19:25N 68°55' E 015°04'0 0.0
2017-Nov-09 18:55N 68°55' E 015°04'0 0.0
2017-Nov-09 18:22N 68°55' E 015°04'0 0.0
2017-Nov-09 17:58N 68°55' E 015°04'0 0.0
2017-Nov-09 16:49N 68°55' E 015°04'0 0.0
2017-Nov-09 16:13N 68°55' E 015°04'0 0.0
2017-Nov-09 15:49N 68°55' E 015°04'0 0.0
2017-Nov-09 15:22N 68°55' E 015°04'0 0.0
2017-Nov-09 14:58N 68°55' E 015°04'0 0.0
2017-Nov-09 14:28N 68°55' E 015°04'0 0.0
2017-Nov-09 13:55N 68°55' E 015°04'0 0.0
2017-Nov-09 13:25N 68°55' E 015°04'0 0.0
2017-Nov-09 12:55N 68°55' E 015°04'0 0.0
2017-Nov-09 11:55N 68°55' E 015°04'0 0.0
2017-Nov-09 11:01N 68°55' E 015°04'0 0.0
2017-Nov-09 10:49N 68°55' E 015°04'0 0.0
2017-Nov-09 10:01N 68°55' E 015°04'0 0.0
2017-Nov-09 09:43N 68°55' E 015°04'0 0.0
2017-Nov-09 09:25N 68°55' E 015°04'0 0.0
2017-Nov-09 08:55N 68°55' E 015°04'0 0.0
2017-Nov-09 08:13N 68°55' E 015°04'0 0.0
2017-Nov-09 07:49N 68°55' E 015°04'0 0.0
2017-Nov-09 07:13N 68°55' E 015°04'0 0.0
2017-Nov-09 06:43N 68°55' E 015°04'0 0.0
2017-Nov-09 06:13N 68°55' E 015°04'0 0.0
2017-Nov-09 05:55N 68°55' E 015°04'0 0.0
2017-Nov-09 05:13N 68°55' E 015°04'0 0.0
2017-Nov-09 04:43N 68°55' E 015°04'0 0.0
2017-Nov-09 04:25N 68°55' E 015°04'0 0.0
2017-Nov-09 03:37N 68°55' E 015°04'0 0.0
2017-Nov-09 03:25N 68°55' E 015°04'0 0.0
2017-Nov-09 02:46N 68°55' E 015°04'0 0.0
2017-Nov-09 02:10N 68°55' E 015°04'0 0.0
2017-Nov-09 01:52N 68°55' E 015°04'0 0.0
2017-Nov-09 01:25N 68°55' E 015°04'0 0.0
2017-Nov-09 00:49N 68°55' E 015°04'0 0.0
2017-Nov-09 00:19N 68°55' E 015°04'0 0.0
2017-Nov-08 23:49N 68°55' E 015°04'0 0.0
2017-Nov-08 23:25N 68°55' E 015°04'0 0.0
2017-Nov-08 22:37N 68°55' E 015°04'0 0.0
2017-Nov-08 22:25N 68°55' E 015°04'0 0.0
2017-Nov-08 21:43N 68°55' E 015°04'0 0.0
2017-Nov-08 21:19N 68°55' E 015°04'0 0.0
2017-Nov-08 20:49N 68°55' E 015°04'0 0.0
2017-Nov-08 20:19N 68°55' E 015°04'0 0.0
2017-Nov-08 19:37N 68°55' E 015°04'0 0.0
2017-Nov-08 19:19N 68°55' E 015°04'0 0.0
2017-Nov-08 18:31N 68°55' E 015°04'0 0.0
2017-Nov-08 18:25N 68°55' E 015°04'0 0.0
2017-Nov-08 17:37N 68°55' E 015°04'0 0.0
2017-Nov-08 17:13N 68°55' E 015°04'0 0.0
2017-Nov-08 16:55N 68°55' E 015°04'0 0.0
2017-Nov-08 16:25N 68°55' E 015°04'0 0.0
2017-Nov-08 15:31N 68°55' E 015°04'0 0.0
2017-Nov-08 15:13N 68°55' E 015°04'0 0.0
2017-Nov-08 14:55N 68°55' E 015°04'0 0.0
2017-Nov-08 14:25N 68°55' E 015°04'0 0.0
2017-Nov-08 12:31N 68°55' E 015°04'0 0.0
2017-Nov-08 08:49N 68°55' E 015°04'0 0.0
2017-Nov-08 08:19N 68°55' E 015°04'0 0.0
2017-Nov-08 07:37N 68°55' E 015°04'0 0.0
2017-Nov-08 07:28N 68°55' E 015°04'0 0.0
2017-Nov-08 06:55N 68°55' E 015°04'0 0.0
2017-Nov-08 06:19N 68°55' E 015°04'0 0.0
2017-Nov-08 05:55N 68°55' E 015°04'0 0.0
2017-Nov-08 05:28N 68°55' E 015°04'0 0.0
2017-Nov-08 04:58N 68°55' E 015°04'0 0.0
2017-Nov-08 04:28N 68°55' E 015°04'0 0.0
2017-Nov-08 03:58N 68°55' E 015°04'0 0.0
2017-Nov-08 03:28N 68°55' E 015°04'0 0.0
2017-Nov-08 02:58N 68°55' E 015°04'0 0.0
2017-Nov-08 02:22N 68°55' E 015°04'0 0.0
2017-Nov-08 01:58N 68°55' E 015°04'0 0.0
2017-Nov-08 01:28N 68°55' E 015°04'0 0.0
2017-Nov-08 00:46N 68°55' E 015°04'0 0.0
2017-Nov-08 00:07N 68°55' E 015°04'0 0.0
2017-Nov-07 22:19N 68°55' E 015°04'0 0.0
2017-Nov-07 21:49N 68°55' E 015°04'0 0.0
2017-Nov-07 21:25N 68°55' E 015°04'0 0.0
2017-Nov-07 20:31N 68°55' E 015°04'0 0.0
2017-Nov-07 20:19N 68°55' E 015°04'0 0.0
2017-Nov-07 19:58N 68°55' E 015°04'0 0.0
2017-Nov-07 19:19N 68°55' E 015°04'0 0.0
2017-Nov-07 18:43N 68°55' E 015°04'0 0.0
2017-Nov-07 18:16N 68°55' E 015°04'0 0.0
2017-Nov-07 17:31N 68°55' E 015°04'0 0.0
2017-Nov-07 16:49N 68°55' E 015°04'0 0.0
2017-Nov-07 16:25N 68°55' E 015°04'0 0.0
2017-Nov-07 15:58N 68°55' E 015°04'0 0.0
2017-Nov-07 15:16N 68°55' E 015°04'0 0.0
2017-Nov-07 14:55N 68°55' E 015°04'0 0.0
2017-Nov-07 14:22N 68°55' E 015°04'0 0.7
2017-Nov-07 14:00N 68°55' E 015°04'4 7.2
2017-Nov-07 13:30N 68°57' E 014°56'4 7.8
2017-Nov-07 13:00N 68°58' E 014°46'4 7.5
2017-Nov-07 12:30N 68°59' E 014°36'4 7.2
2017-Nov-07 12:00N 69°00' E 014°26'2 3.4
2017-Nov-07 11:30N 69°00' E 014°22'0 0.5
2017-Nov-07 11:00N 69°00' E 014°21'0 0.8
2017-Nov-07 10:30N 68°60' E 014°21'1 1.1
2017-Nov-07 10:00N 69°00' E 014°21'1 1.1
2017-Nov-07 09:30N 69°01' E 014°22'0 0.9
2017-Nov-07 09:00N 69°01' E 014°21'1 1.9
2017-Nov-07 08:30N 69°00' E 014°21'1 1.2
2017-Nov-07 08:00N 69°01' E 014°21'1 1.1
2017-Nov-07 07:30N 69°00' E 014°21'0 1.0
2017-Nov-07 07:00N 69°01' E 014°21'1 1.5
2017-Nov-07 06:30N 69°00' E 014°21'1 2.0
2017-Nov-07 06:00N 68°60' E 014°23'4 7.7
2017-Nov-07 05:30N 68°59' E 014°34'4 7.8
2017-Nov-07 05:00N 68°58' E 014°45'4 7.8
2017-Nov-07 04:30N 68°57' E 014°55'4 7.6
2017-Nov-07 04:00N 68°55' E 015°04'0 0.4
2017-Nov-07 03:06N 68°55' E 015°04'0 0.0
2017-Nov-07 02:54N 68°55' E 015°04'0 0.0
2017-Nov-07 02:30N 68°55' E 015°04'0 0.0
2017-Nov-07 01:42N 68°55' E 015°04'0 0.0
2017-Nov-07 01:29N 68°55' E 015°04'0 0.0
2017-Nov-07 00:59N 68°55' E 015°04'0 0.0
2017-Nov-07 00:11N 68°55' E 015°04'0 0.0
2017-Nov-06 23:42N 68°55' E 015°04'0 0.0
2017-Nov-06 23:18N 68°55' E 015°04'0 0.0
2017-Nov-06 22:47N 68°55' E 015°04'0 0.0
2017-Nov-06 22:06N 68°55' E 015°04'0 0.0
2017-Nov-06 21:30N 68°55' E 015°04'0 0.0
2017-Nov-06 20:53N 68°55' E 015°04'0 0.0
2017-Nov-06 20:12N 68°55' E 015°04'  
Track history (hours):
 
Tides and Currents Weather Stations Pressure Air Temp Water Temp Dewpoint Dewpoint Depression Visibility Wind Speed Wind Dir Waves Ship Positions

Norhavet

Last reported at 2017-Nov-16 09:02 UTC. Time now 2017-Nov-21 23:15 UTC.
Position N 68°55' E 015°04'.

Length 12 m.

Type: Fishing. MMSI: 257301620.

Date/timePositionNaut miles runAvg speedWind from/ knotsBaromVisibWave heightAir tempDewpointWater temp
2017-Nov-16 09:02N 68°55' E 015°04'0 0.0
2017-Nov-16 08:56N 68°55' E 015°04'0 0.0
2017-Nov-16 08:20N 68°55' E 015°04'0 0.0
2017-Nov-16 07:56N 68°55' E 015°04'0 0.0
2017-Nov-16 07:26N 68°55' E 015°04'0 0.0
2017-Nov-16 06:53N 68°55' E 015°04'0 0.0
2017-Nov-16 06:26N 68°55' E 015°04'0 0.0
2017-Nov-16 05:59N 68°55' E 015°04'0 0.0
2017-Nov-16 05:20N 68°55' E 015°04'0 0.0
2017-Nov-16 04:56N 68°55' E 015°04'0 0.0
2017-Nov-16 04:26N 68°55' E 015°04'0 0.0
2017-Nov-16 03:56N 68°55' E 015°04'0 0.0
2017-Nov-16 03:26N 68°55' E 015°04'0 0.0
2017-Nov-16 02:56N 68°55' E 015°04'0 0.0
2017-Nov-16 02:14N 68°55' E 015°04'0 0.0
2017-Nov-16 01:56N 68°55' E 015°04'0 0.0
2017-Nov-16 01:20N 68°55' E 015°04'0 0.0
2017-Nov-16 00:44N 68°55' E 015°04'0 0.0
2017-Nov-16 00:23N 68°55' E 015°04'0 0.0
2017-Nov-15 23:59N 68°55' E 015°04'0 0.0
2017-Nov-15 23:20N 68°55' E 015°04'0 0.0
2017-Nov-15 22:59N 68°55' E 015°04'0 0.0
2017-Nov-15 22:29N 68°55' E 015°04'0 0.0
2017-Nov-15 21:44N 68°55' E 015°04'0 0.0
2017-Nov-15 21:20N 68°55' E 015°04'0 0.0
2017-Nov-15 20:56N 68°55' E 015°04'0 0.0
2017-Nov-15 20:26N 68°55' E 015°04'0 0.0
2017-Nov-15 19:38N 68°55' E 015°04'0 0.0
2017-Nov-15 19:02N 68°55' E 015°04'0 0.0
2017-Nov-15 18:56N 68°55' E 015°04'0 0.0
2017-Nov-15 18:26N 68°55' E 015°04'0 0.0
2017-Nov-15 17:56N 68°55' E 015°04'0 0.0
2017-Nov-15 17:26N 68°55' E 015°04'0 0.0
2017-Nov-15 16:50N 68°55' E 015°04'0 0.0
2017-Nov-15 16:26N 68°55' E 015°04'0 0.0
2017-Nov-15 15:50N 68°55' E 015°04'0 0.0
2017-Nov-15 15:26N 68°55' E 015°04'0 0.3
2017-Nov-15 15:00N 68°55' E 015°04'1 2.8
2017-Nov-15 14:30N 68°56' E 015°02'4 7.6
2017-Nov-15 14:00N 68°57' E 014°52'4 7.8
2017-Nov-15 13:30N 68°58' E 014°42'4 8.0
2017-Nov-15 13:00N 68°60' E 014°31'4 7.4
2017-Nov-15 12:30N 69°01' E 014°21'2 3.8
2017-Nov-15 12:00N 69°01' E 014°16'0 0.5
2017-Nov-15 11:31N 69°02' E 014°16'0 0.6
2017-Nov-15 11:00N 69°01' E 014°16'0 0.4
2017-Nov-15 10:30N 69°01' E 014°16'0 0.3
2017-Nov-15 10:01N 69°01' E 014°16'0 0.3
2017-Nov-15 09:30N 69°01' E 014°16'2 3.7
2017-Nov-15 09:00N 69°00' E 014°21'0 0.1
2017-Nov-15 08:30N 69°00' E 014°20'0 0.6
2017-Nov-15 08:00N 68°60' E 014°20'0 0.4
2017-Nov-15 07:30N 68°60' E 014°21'0 0.2
2017-Nov-15 07:00N 68°60' E 014°21'1 2.2
2017-Nov-15 06:29N 68°60' E 014°24'4 7.0
2017-Nov-15 05:59N 68°59' E 014°33'3 6.8
2017-Nov-15 05:29N 68°58' E 014°43'4 7.2
2017-Nov-15 04:59N 68°57' E 014°52'4 7.5
2017-Nov-15 04:30N 68°56' E 015°01'2 2.8
2017-Nov-15 03:57N 68°55' E 015°04'0 0.0
2017-Nov-15 03:27N 68°55' E 015°04'0 0.0
2017-Nov-15 02:57N 68°55' E 015°04'0 0.0
2017-Nov-15 02:27N 68°55' E 015°04'0 0.0
2017-Nov-15 01:39N 68°55' E 015°04'0 0.0
2017-Nov-15 01:27N 68°55' E 015°04'0 0.0
2017-Nov-15 00:57N 68°55' E 015°04'0 0.0
2017-Nov-15 00:30N 68°55' E 015°04'0 0.0
2017-Nov-14 23:51N 68°55' E 015°04'0 0.0
2017-Nov-14 23:30N 68°55' E 015°04'0 0.0
2017-Nov-14 23:00N 68°55' E 015°04'0 0.0
2017-Nov-14 22:24N 68°55' E 015°04'0 0.0
2017-Nov-14 22:00N 68°55' E 015°04'0 0.0
2017-Nov-14 21:30N 68°55' E 015°04'0 0.0
2017-Nov-14 21:00N 68°55' E 015°04'0 0.0
2017-Nov-14 20:30N 68°55' E 015°04'0 0.0
2017-Nov-14 19:48N 68°55' E 015°04'0 0.0
2017-Nov-14 19:27N 68°55' E 015°04'0 0.0
2017-Nov-14 19:00N 68°55' E 015°04'0 0.0
2017-Nov-14 18:27N 68°55' E 015°04'0 0.0
2017-Nov-14 17:51N 68°55' E 015°04'0 0.0
2017-Nov-14 17:30N 68°55' E 015°04'0 0.0
2017-Nov-14 16:57N 68°55' E 015°04'0 0.0
2017-Nov-14 16:27N 68°55' E 015°04'0 0.0
2017-Nov-14 15:57N 68°55' E 015°04'0 0.0
2017-Nov-14 15:27N 68°55' E 015°04'0 0.3
2017-Nov-14 14:58N 68°55' E 015°04'3 6.3
2017-Nov-14 14:27N 68°57' E 014°57'4 7.9
2017-Nov-14 14:00N 68°58' E 014°48'4 7.9
2017-Nov-14 13:30N 68°59' E 014°37'4 7.8
2017-Nov-14 13:00N 68°60' E 014°27'4 6.7
2017-Nov-14 12:29N 69°01' E 014°18'0 0.1
2017-Nov-14 12:00N 69°01' E 014°17'0 0.1
2017-Nov-14 11:29N 69°01' E 014°17'0 0.3
2017-Nov-14 11:00N 69°01' E 014°17'2 3.0
2017-Nov-14 10:30N 69°00' E 014°20'1 1.3
2017-Nov-14 10:00N 69°00' E 014°22'0 0.4
2017-Nov-14 09:30N 69°00' E 014°21'0 0.4
2017-Nov-14 08:59N 68°60' E 014°21'0 0.6
2017-Nov-14 08:30N 69°00' E 014°22'0 0.5
2017-Nov-14 08:00N 69°00' E 014°22'0 0.5
2017-Nov-14 07:30N 69°00' E 014°22'0 0.5
2017-Nov-14 07:00N 68°60' E 014°21'0 0.1
2017-Nov-14 06:30N 68°60' E 014°21'2 3.1
2017-Nov-14 06:00N 68°59' E 014°25'4 7.9
2017-Nov-14 05:30N 68°58' E 014°36'4 7.4
2017-Nov-14 05:00N 68°58' E 014°46'4 7.2
2017-Nov-14 04:29N 68°57' E 014°56'4 7.1
2017-Nov-14 03:57N 68°55' E 015°04'0 0.4
2017-Nov-14 03:28N 68°55' E 015°04'0 0.0
2017-Nov-14 02:58N 68°55' E 015°04'0 0.0
2017-Nov-14 02:25N 68°55' E 015°04'0 0.0
2017-Nov-14 01:55N 68°55' E 015°04'0 0.0
2017-Nov-14 01:25N 68°55' E 015°04'0 0.0
2017-Nov-14 00:55N 68°55' E 015°04'0 0.0
2017-Nov-14 00:07N 68°55' E 015°04'0 0.0
2017-Nov-13 23:55N 68°55' E 015°04'0 0.0
2017-Nov-13 23:25N 68°55' E 015°04'0 0.0
2017-Nov-13 22:49N 68°55' E 015°04'0 0.0
2017-Nov-13 22:28N 68°55' E 015°04'0 0.0
2017-Nov-13 21:58N 68°55' E 015°04'0 0.0
2017-Nov-13 00:25N 68°55' E 015°04'0 0.0
2017-Nov-12 23:25N 68°55' E 015°04'0 0.0
2017-Nov-12 22:37N 68°55' E 015°04'0 0.0
2017-Nov-12 22:19N 68°55' E 015°04'0 0.0
2017-Nov-12 21:43N 68°55' E 015°04'0 0.0
2017-Nov-12 21:25N 68°55' E 015°04'0 0.0
2017-Nov-12 20:49N 68°55' E 015°04'0 0.0
2017-Nov-12 20:22N 68°55' E 015°04'0 0.0
2017-Nov-12 18:43N 68°55' E 015°04'0 0.0
2017-Nov-12 18:25N 68°55' E 015°04'0 0.0
2017-Nov-12 17:43N 68°55' E 015°04'0 0.0
2017-Nov-12 17:25N 68°55' E 015°04'0 0.0
2017-Nov-12 16:55N 68°55' E 015°04'0 0.0
2017-Nov-12 16:25N 68°55' E 015°04'0 0.0
2017-Nov-12 15:43N 68°55' E 015°04'0 0.0
2017-Nov-12 15:01N 68°55' E 015°04'0 0.0
2017-Nov-12 14:49N 68°55' E 015°04'0 0.0
2017-Nov-12 13:31N 68°55' E 015°04'0 0.0
2017-Nov-12 12:55N 68°55' E 015°04'0 0.0
2017-Nov-12 12:19N 68°55' E 015°04'0 0.0
2017-Nov-12 11:13N 68°55' E 015°04'0 0.0
2017-Nov-12 10:55N 68°55' E 015°04'0 0.0
2017-Nov-12 08:49N 68°55' E 015°04'0 0.0
2017-Nov-12 08:25N 68°55' E 015°04'0 0.0
2017-Nov-12 07:37N 68°55' E 015°04'0 0.0
2017-Nov-12 07:25N 68°55' E 015°04'0 0.0
2017-Nov-12 06:55N 68°55' E 015°04'0 0.0
2017-Nov-12 06:25N 68°55' E 015°04'0 0.0
2017-Nov-12 05:55N 68°55' E 015°04'0 0.0
2017-Nov-12 05:25N 68°55' E 015°04'0 0.0
2017-Nov-12 04:49N 68°55' E 015°04'0 0.0
2017-Nov-12 04:25N 68°55' E 015°04'0 0.0
2017-Nov-12 03:55N 68°55' E 015°04'0 0.0
2017-Nov-12 03:25N 68°55' E 015°04'0 0.0
2017-Nov-12 02:01N 68°55' E 015°04'0 0.0
2017-Nov-12 01:49N 68°55' E 015°04'0 0.0
2017-Nov-12 01:01N 68°55' E 015°04'0 0.0
2017-Nov-12 00:37N 68°55' E 015°04'0 0.0
2017-Nov-11 23:37N 68°55' E 015°04'0 0.0
2017-Nov-11 23:25N 68°55' E 015°04'0 0.0
2017-Nov-11 22:55N 68°55' E 015°04'0 0.0
2017-Nov-11 22:19N 68°55' E 015°04'0 0.0
2017-Nov-11 21:55N 68°55' E 015°04'0 0.0
2017-Nov-11 21:13N 68°55' E 015°04'0 0.0
2017-Nov-11 20:55N 68°55' E 015°04'0 0.0
2017-Nov-11 20:19N 68°55' E 015°04'0 0.0
2017-Nov-11 19:49N 68°55' E 015°04'0 0.0
2017-Nov-11 19:25N 68°55' E 015°04'0 0.0
2017-Nov-11 18:52N 68°55' E 015°04'0 0.0
2017-Nov-11 18:25N 68°55' E 015°04'0 0.0
2017-Nov-11 17:43N 68°55' E 015°04'0 0.0
2017-Nov-11 17:19N 68°55' E 015°04'0 0.0
2017-Nov-11 16:49N 68°55' E 015°04'0 0.0
2017-Nov-11 16:19N 68°55' E 015°04'0 0.0
2017-Nov-11 15:55N 68°55' E 015°04'0 0.0
2017-Nov-11 14:25N 68°55' E 015°04'0 0.0
2017-Nov-11 13:55N 68°55' E 015°04'0 0.0
2017-Nov-11 13:19N 68°55' E 015°04'0 0.0
2017-Nov-11 12:55N 68°55' E 015°04'0 0.0
2017-Nov-11 12:25N 68°55' E 015°04'0 0.0
2017-Nov-11 11:55N 68°55' E 015°04'0 0.0
2017-Nov-11 11:19N 68°55' E 015°04'0 0.0
2017-Nov-11 10:13N 68°55' E 015°04'0 0.0
2017-Nov-11 09:49N 68°55' E 015°04'0 0.0
2017-Nov-11 09:25N 68°55' E 015°04'0 0.0
2017-Nov-11 08:37N 68°55' E 015°04'0 0.0
2017-Nov-11 08:13N 68°55' E 015°04'0 0.0
2017-Nov-11 07:49N 68°55' E 015°04'0 0.0
2017-Nov-11 07:19N 68°55' E 015°04'0 0.0
2017-Nov-11 06:43N 68°55' E 015°04'0 0.0
2017-Nov-11 06:19N 68°55' E 015°04'0 0.0
2017-Nov-11 05:55N 68°55' E 015°04'0 0.0
2017-Nov-11 05:25N 68°55' E 015°04'0 0.0
2017-Nov-11 04:55N 68°55' E 015°04'0 0.0
2017-Nov-11 04:19N 68°55' E 015°04'0 0.0
2017-Nov-11 03:49N 68°55' E 015°04'0 0.0
2017-Nov-11 03:25N 68°55' E 015°04'0 0.0
2017-Nov-11 02:55N 68°55' E 015°04'0 0.0
2017-Nov-11 02:07N 68°55' E 015°04'0 0.0
2017-Nov-11 01:55N 68°55' E 015°04'0 0.0
2017-Nov-11 01:13N 68°55' E 015°04'0 0.0
2017-Nov-11 00:55N 68°55' E 015°04'0 0.0
2017-Nov-11 00:13N 68°55' E 015°04'0 0.0
2017-Nov-10 23:43N 68°55' E 015°04'0 0.0
2017-Nov-10 23:19N 68°55' E 015°04'0 0.0
2017-Nov-10 22:55N 68°55' E 015°04'0 0.0
2017-Nov-10 21:13N 68°55' E 015°04'0 0.0
2017-Nov-10 20:49N 68°55' E 015°04'0 0.0
2017-Nov-10 20:19N 68°55' E 015°04'0 0.0
2017-Nov-10 19:55N 68°55' E 015°04'0 0.0
2017-Nov-10 19:25N 68°55' E 015°04'0 0.0
2017-Nov-10 18:55N 68°55' E 015°04'0 0.0
2017-Nov-10 18:25N 68°55' E 015°04'0 0.0
2017-Nov-10 17:37N 68°55' E 015°04'0 0.0
2017-Nov-10 17:10N 68°55' E 015°04'0 0.0
2017-Nov-10 16:55N 68°55' E 015°04'0 0.0
2017-Nov-10 16:25N 68°55' E 015°04'0 0.0
2017-Nov-10 15:52N 68°55' E 015°04'0 0.0
2017-Nov-10 15:28N 68°55' E 015°04'0 0.0
2017-Nov-10 14:52N 68°55' E 015°04'0 0.0
2017-Nov-10 14:13N 68°55' E 015°04'0 0.0
2017-Nov-10 13:13N 68°55' E 015°04'0 0.0
2017-Nov-10 12:55N 68°55' E 015°04'0 0.0
2017-Nov-10 12:25N 68°55' E 015°04'0 0.0
2017-Nov-10 11:49N 68°55' E 015°04'0 0.0
2017-Nov-10 11:07N 68°55' E 015°04'0 0.0
2017-Nov-10 10:13N 68°55' E 015°04'0 0.0
2017-Nov-10 09:49N 68°55' E 015°04'0 0.0
2017-Nov-10 09:25N 68°55' E 015°04'0 0.0
2017-Nov-10 08:25N 68°55' E 015°04'0 0.0
2017-Nov-10 07:55N 68°55' E 015°04'0 0.0
2017-Nov-10 07:19N 68°55' E 015°04'0 0.0
2017-Nov-10 06:55N 68°55' E 015°04'0 0.0
2017-Nov-10 06:25N 68°55' E 015°04'0 0.0
2017-Nov-10 05:43N 68°55' E 015°04'0 0.0
2017-Nov-10 05:22N 68°55' E 015°04'0 0.0
2017-Nov-10 04:55N 68°55' E 015°04'0 0.0
2017-Nov-10 04:25N 68°55' E 015°04'0 0.0
2017-Nov-10 03:58N 68°55' E 015°04'0 0.0
2017-Nov-10 03:28N 68°55' E 015°04'0 0.0
2017-Nov-10 02:49N 68°55' E 015°04'0 0.0
2017-Nov-10 02:28N 68°55' E 015°04'0 0.0
2017-Nov-10 01:37N 68°55' E 015°04'0 0.0
2017-Nov-10 01:25N 68°55' E 015°04'0 0.0
2017-Nov-10 00:58N 68°55' E 015°04'0 0.0
2017-Nov-10 00:25N 68°55' E 015°04'0 0.0
2017-Nov-09 23:49N 68°55' E 015°04'0 0.0
2017-Nov-09 23:25N 68°55' E 015°04'0 0.0
2017-Nov-09 22:49N 68°55' E 015°04'0 0.0
2017-Nov-09 21:55N 68°55' E 015°04'0 0.0
2017-Nov-09 21:01N 68°55' E 015°04'0 0.0
2017-Nov-09 20:25N 68°55' E 015°04'0 0.0
2017-Nov-09 19:49N 68°55' E 015°04'0 0.0
2017-Nov-09 19:25N 68°55' E 015°04'0 0.0
2017-Nov-09 18:55N 68°55' E 015°04'0 0.0
2017-Nov-09 18:22N 68°55' E 015°04'0 0.0
2017-Nov-09 17:58N 68°55' E 015°04'0 0.0
2017-Nov-09 16:49N 68°55' E 015°04'0 0.0
2017-Nov-09 16:13N 68°55' E 015°04'0 0.0
2017-Nov-09 15:49N 68°55' E 015°04'0 0.0
2017-Nov-09 15:22N 68°55' E 015°04'0 0.0
2017-Nov-09 14:58N 68°55' E 015°04'0 0.0
2017-Nov-09 14:28N 68°55' E 015°04'0 0.0
2017-Nov-09 13:55N 68°55' E 015°04'0 0.0
2017-Nov-09 13:25N 68°55' E 015°04'0 0.0
2017-Nov-09 12:55N 68°55' E 015°04'0 0.0
2017-Nov-09 11:55N 68°55' E 015°04'0 0.0
2017-Nov-09 11:01N 68°55' E 015°04'0 0.0
2017-Nov-09 10:49N 68°55' E 015°04'0 0.0
2017-Nov-09 10:01N 68°55' E 015°04'0 0.0
2017-Nov-09 09:43N 68°55' E 015°04'0 0.0
2017-Nov-09 09:25N 68°55' E 015°04'0 0.0
2017-Nov-09 08:55N 68°55' E 015°04'0 0.0
2017-Nov-09 08:13N 68°55' E 015°04'0 0.0
2017-Nov-09 07:49N 68°55' E 015°04'0 0.0
2017-Nov-09 07:13N 68°55' E 015°04'0 0.0
2017-Nov-09 06:43N 68°55' E 015°04'0 0.0
2017-Nov-09 06:13N 68°55' E 015°04'0 0.0
2017-Nov-09 05:55N 68°55' E 015°04'0 0.0
2017-Nov-09 05:13N 68°55' E 015°04'0 0.0
2017-Nov-09 04:43N 68°55' E 015°04'0 0.0
2017-Nov-09 04:25N 68°55' E 015°04'0 0.0
2017-Nov-09 03:37N 68°55' E 015°04'0 0.0
2017-Nov-09 03:25N 68°55' E 015°04'0 0.0
2017-Nov-09 02:46N 68°55' E 015°04'0 0.0
2017-Nov-09 02:10N 68°55' E 015°04'0 0.0
2017-Nov-09 01:52N 68°55' E 015°04'0 0.0
2017-Nov-09 01:25N 68°55' E 015°04'0 0.0
2017-Nov-09 00:49N 68°55' E 015°04'0 0.0
2017-Nov-09 00:19N 68°55' E 015°04'0 0.0
2017-Nov-08 23:49N 68°55' E 015°04'0 0.0
2017-Nov-08 23:25N 68°55' E 015°04'0 0.0
2017-Nov-08 22:37N 68°55' E 015°04'0 0.0
2017-Nov-08 22:25N 68°55' E 015°04'0 0.0
2017-Nov-08 21:43N 68°55' E 015°04'0 0.0
2017-Nov-08 21:19N 68°55' E 015°04'0 0.0
2017-Nov-08 20:49N 68°55' E 015°04'0 0.0
2017-Nov-08 20:19N 68°55' E 015°04'0 0.0
2017-Nov-08 19:37N 68°55' E 015°04'0 0.0
2017-Nov-08 19:19N 68°55' E 015°04'0 0.0
2017-Nov-08 18:31N 68°55' E 015°04'0 0.0
2017-Nov-08 18:25N 68°55' E 015°04'0 0.0
2017-Nov-08 17:37N 68°55' E 015°04'0 0.0
2017-Nov-08 17:13N 68°55' E 015°04'0 0.0
2017-Nov-08 16:55N 68°55' E 015°04'0 0.0
2017-Nov-08 16:25N 68°55' E 015°04'0 0.0
2017-Nov-08 15:31N 68°55' E 015°04'0 0.0
2017-Nov-08 15:13N 68°55' E 015°04'0 0.0
2017-Nov-08 14:55N 68°55' E 015°04'0 0.0
2017-Nov-08 14:25N 68°55' E 015°04'0 0.0
2017-Nov-08 12:31N 68°55' E 015°04'0 0.0
2017-Nov-08 08:49N 68°55' E 015°04'0 0.0
2017-Nov-08 08:19N 68°55' E 015°04'0 0.0
2017-Nov-08 07:37N 68°55' E 015°04'0 0.0
2017-Nov-08 07:28N 68°55' E 015°04'0 0.0
2017-Nov-08 06:55N 68°55' E 015°04'0 0.0
2017-Nov-08 06:19N 68°55' E 015°04'0 0.0
2017-Nov-08 05:55N 68°55' E 015°04'0 0.0
2017-Nov-08 05:28N 68°55' E 015°04'0 0.0
2017-Nov-08 04:58N 68°55' E 015°04'0 0.0
2017-Nov-08 04:28N 68°55' E 015°04'0 0.0
2017-Nov-08 03:58N 68°55' E 015°04'0 0.0
2017-Nov-08 03:28N 68°55' E 015°04'0 0.0
2017-Nov-08 02:58N 68°55' E 015°04'0 0.0
2017-Nov-08 02:22N 68°55' E 015°04'0 0.0
2017-Nov-08 01:58N 68°55' E 015°04'0 0.0
2017-Nov-08 01:28N 68°55' E 015°04'0 0.0
2017-Nov-08 00:46N 68°55' E 015°04'0 0.0
2017-Nov-08 00:07N 68°55' E 015°04'0 0.0
2017-Nov-07 22:19N 68°55' E 015°04'0 0.0
2017-Nov-07 21:49N 68°55' E 015°04'0 0.0
2017-Nov-07 21:25N 68°55' E 015°04'0 0.0
2017-Nov-07 20:31N 68°55' E 015°04'0 0.0
2017-Nov-07 20:19N 68°55' E 015°04'0 0.0
2017-Nov-07 19:58N 68°55' E 015°04'0 0.0
2017-Nov-07 19:19N 68°55' E 015°04'0 0.0
2017-Nov-07 18:43N 68°55' E 015°04'0 0.0
2017-Nov-07 18:16N 68°55' E 015°04'0 0.0
2017-Nov-07 17:31N 68°55' E 015°04'0 0.0
2017-Nov-07 16:49N 68°55' E 015°04'0 0.0
2017-Nov-07 16:25N 68°55' E 015°04'0 0.0
2017-Nov-07 15:58N 68°55' E 015°04'0 0.0
2017-Nov-07 15:16N 68°55' E 015°04'0 0.0
2017-Nov-07 14:55N 68°55' E 015°04'0 0.0
2017-Nov-07 14:22N 68°55' E 015°04'0 0.7
2017-Nov-07 14:00N 68°55' E 015°04'4 7.2
2017-Nov-07 13:30N 68°57' E 014°56'4 7.8
2017-Nov-07 13:00N 68°58' E 014°46'4 7.5
2017-Nov-07 12:30N 68°59' E 014°36'4 7.2
2017-Nov-07 12:00N 69°00' E 014°26'2 3.4
2017-Nov-07 11:30N 69°00' E 014°22'0 0.5
2017-Nov-07 11:00N 69°00' E 014°21'0 0.8
2017-Nov-07 10:30N 68°60' E 014°21'1 1.1
2017-Nov-07 10:00N 69°00' E 014°21'1 1.1
2017-Nov-07 09:30N 69°01' E 014°22'0 0.9
2017-Nov-07 09:00N 69°01' E 014°21'1 1.9
2017-Nov-07 08:30N 69°00' E 014°21'1 1.2
2017-Nov-07 08:00N 69°01' E 014°21'1 1.1
2017-Nov-07 07:30N 69°00' E 014°21'0 1.0
2017-Nov-07 07:00N 69°01' E 014°21'1 1.5
2017-Nov-07 06:30N 69°00' E 014°21'1 2.0
2017-Nov-07 06:00N 68°60' E 014°23'4 7.7
2017-Nov-07 05:30N 68°59' E 014°34'4 7.8
2017-Nov-07 05:00N 68°58' E 014°45'4 7.8
2017-Nov-07 04:30N 68°57' E 014°55'4 7.6
2017-Nov-07 04:00N 68°55' E 015°04'0 0.4
2017-Nov-07 03:06N 68°55' E 015°04'0 0.0
2017-Nov-07 02:54N 68°55' E 015°04'0 0.0
2017-Nov-07 02:30N 68°55' E 015°04'0 0.0
2017-Nov-07 01:42N 68°55' E 015°04'0 0.0
2017-Nov-07 01:29N 68°55' E 015°04'0 0.0
2017-Nov-07 00:59N 68°55' E 015°04'0 0.0
2017-Nov-07 00:11N 68°55' E 015°04'0 0.0
2017-Nov-06 23:42N 68°55' E 015°04'0 0.0
2017-Nov-06 23:18N 68°55' E 015°04'0 0.0
2017-Nov-06 22:47N 68°55' E 015°04'0 0.0
2017-Nov-06 22:06N 68°55' E 015°04'0 0.0
2017-Nov-06 21:30N 68°55' E 015°04'0 0.0
2017-Nov-06 20:53N 68°55' E 015°04'0 0.0
2017-Nov-06 20:12N 68°55' E 015°04'  

Dump ship's entire track history